Time;durP1;ratioP1;P1;durP2;ratioP2;P2;SDS_P1;SDS_P2;PMS_P1;PMS_P2;Temp;Humidity;BMP_temperature;BMP_pressure;BME280_temperature;BME280_humidity;BME280_pressure;Samples;Min_cycle;Max_cycle;Signal;HPM_P1;HPM_P2
2023/08/12 00:00:27;;;;;;;;;;;;;;;24.06;52.19;101287.72;7395270;19;1267;-48
2023/08/12 00:02:56;;;;;;;;;;;;;;;24.08;52.08;101290.28;7397103;19;1136;-48
2023/08/12 00:05:24;;;;;;;;;;;;;;;24.06;51.54;101290.41;7397468;19;1130;-47
2023/08/12 00:07:52;;;;;;;;;;;;;;;23.98;52.38;101285.78;7396625;19;1387;-48
2023/08/12 00:10:21;;;;;;;;;;;;;;;24.13;51.78;101287.94;7395827;19;1250;-47
2023/08/12 00:12:49;;;;;;;;;;;;;;;24.12;51.78;101297.91;7396784;19;1204;-48
2023/08/12 00:15:20;;;;;;;;;;;;;;;24.03;51.71;101288.00;7396199;19;1379;-47
2023/08/12 00:17:48;;;;;;;;;;;;;;;23.95;52.14;101290.66;7395039;19;1854;-47
2023/08/12 00:20:17;;;;;;;;;;;;;;;24.01;52.06;101290.91;7395643;19;1151;-47
2023/08/12 00:22:45;;;;;;;;;;;;;;;23.93;51.96;101293.50;7396097;19;1203;-47
2023/08/12 00:25:13;;;;;;;;;;;;;;;23.96;51.94;101289.66;7396839;19;1293;-47
2023/08/12 00:27:41;;;;;;;;;;;;;;;23.90;52.15;101279.47;7394967;19;1263;-48
2023/08/12 00:30:10;;;;;;;;;;;;;;;24.00;52.15;101299.16;7394485;19;1225;-48
2023/08/12 00:32:41;;;;;;;;;;;;;;;23.97;52.32;101299.44;7396478;19;1265;-48
2023/08/12 00:35:10;;;;;;;;;;;;;;;24.08;51.70;101301.06;7396489;19;1575;-49
2023/08/12 00:37:38;;;;;;;;;;;;;;;24.03;51.62;101293.41;7394729;19;1847;-48
2023/08/12 00:40:07;;;;;;;;;;;;;;;24.08;52.02;101301.06;7395120;19;1195;-48
2023/08/12 00:42:35;;;;;;;;;;;;;;;24.06;51.96;101287.72;7396015;19;1530;-47
2023/08/12 00:45:03;;;;;;;;;;;;;;;24.10;51.85;101309.88;7395957;19;1411;-47
2023/08/12 00:47:32;;;;;;;;;;;;;;;23.98;51.58;101295.75;7394765;19;1191;-47
2023/08/12 00:50:03;;;;;;;;;;;;;;;23.96;52.03;101286.97;7395213;19;1444;-47
2023/08/12 00:52:32;;;;;;;;;;;;;;;23.88;52.26;101295.84;7394294;19;1267;-47
2023/08/12 00:55:01;;;;;;;;;;;;;;;23.86;52.25;101291.59;7395696;19;1437;-47
2023/08/12 00:57:29;;;;;;;;;;;;;;;24.01;51.88;101298.13;7394506;19;1843;-47
2023/08/12 00:59:58;;;;;;;;;;;;;;;23.88;51.92;101295.84;7394925;19;1155;-47
2023/08/12 01:02:26;;;;;;;;;;;;;;;23.82;52.32;101308.09;7394943;19;1348;-47
2023/08/12 01:04:55;;;;;;;;;;;;;;;23.92;51.77;101290.97;7394360;19;1243;-47
2023/08/12 01:07:26;;;;;;;;;;;;;;;23.84;51.75;101290.91;7394165;19;1431;-47
2023/08/12 01:09:54;;;;;;;;;;;;;;;23.78;52.03;101289.66;7393512;19;1183;-47
2023/08/12 01:12:27;;;;;;;;;;;;;;;23.87;52.02;101283.31;7393003;19;1313;-48
2023/08/12 01:15:01;;;;;;;;;;;;;;;23.84;51.84;101277.41;7401551;19;1323;-47
2023/08/12 01:17:32;;;;;;;;;;;;;;;23.86;51.96;101291.59;7399938;19;1851;-47
2023/08/12 01:20:02;;;;;;;;;;;;;;;23.77;51.98;101288.81;7401480;19;1316;-48
2023/08/12 01:22:36;;;;;;;;;;;;;;;23.83;52.09;101287.34;7402381;19;1167;-47
2023/08/12 01:25:07;;;;;;;;;;;;;;;23.84;52.13;101296.31;7401464;19;1294;-47
2023/08/12 01:27:37;;;;;;;;;;;;;;;23.84;51.77;101277.41;7401642;19;1192;-48
2023/08/12 01:30:07;;;;;;;;;;;;;;;23.74;51.55;101289.09;7401391;19;1176;-47
2023/08/12 01:32:39;;;;;;;;;;;;;;;23.70;51.72;101292.25;7401443;19;1500;-47
2023/08/12 01:35:09;;;;;;;;;;;;;;;23.73;51.41;101287.38;7401344;19;1783;-47
2023/08/12 01:37:38;;;;;;;;;;;;;;;23.75;51.85;101289.94;7400700;19;1856;-47
2023/08/12 01:40:11;;;;;;;;;;;;;;;23.70;51.49;101298.50;7400785;19;1463;-47
2023/08/12 01:42:41;;;;;;;;;;;;;;;23.71;51.43;101300.19;7401617;19;1451;-47
2023/08/12 01:45:10;;;;;;;;;;;;;;;23.71;51.64;101302.03;7401426;19;1270;-47
2023/08/12 01:47:39;;;;;;;;;;;;;;;23.65;51.55;101311.59;7400720;19;1297;-47
2023/08/12 01:50:07;;;;;;;;;;;;;;;23.70;51.48;101314.72;7400459;19;1483;-47
2023/08/12 01:52:36;;;;;;;;;;;;;;;23.69;51.33;101314.84;7400326;19;1371;-50
2023/08/12 01:55:04;;;;;;;;;;;;;;;23.65;51.55;101310.75;7399775;19;1244;-47
2023/08/12 01:57:35;;;;;;;;;;;;;;;23.59;51.36;101312.22;7397997;19;1843;-47
2023/08/12 02:00:04;;;;;;;;;;;;;;;23.57;51.75;101319.63;7400523;19;1140;-47
2023/08/12 02:02:32;;;;;;;;;;;;;;;23.51;51.38;101312.97;7399879;19;1717;-47
2023/08/12 02:05:00;;;;;;;;;;;;;;;23.53;51.35;101316.38;7400794;19;1360;-47
2023/08/12 02:07:29;;;;;;;;;;;;;;;23.52;51.57;101317.38;7400648;19;1510;-47
2023/08/12 02:09:57;;;;;;;;;;;;;;;23.55;51.47;101333.25;7400659;19;1415;-47
2023/08/12 02:12:25;;;;;;;;;;;;;;;23.54;51.29;101330.75;7400053;19;1300;-47
2023/08/12 02:14:56;;;;;;;;;;;;;;;23.48;51.33;101336.75;7400170;19;1377;-47
2023/08/12 02:17:24;;;;;;;;;;;;;;;23.45;51.52;101345.97;7399355;19;1938;-47
2023/08/12 02:19:52;;;;;;;;;;;;;;;23.42;51.47;101340.91;7400285;19;1337;-47
2023/08/12 02:22:21;;;;;;;;;;;;;;;23.41;51.65;101337.31;7400809;19;1388;-47
2023/08/12 02:24:49;;;;;;;;;;;;;;;23.45;51.41;101331.66;7399294;19;1183;-47
2023/08/12 02:27:17;;;;;;;;;;;;;;;23.46;51.49;101344.13;7400669;19;1116;-47
2023/08/12 02:29:46;;;;;;;;;;;;;;;23.45;51.32;101347.84;7400147;19;1250;-47
2023/08/12 02:32:17;;;;;;;;;;;;;;;23.44;51.14;101336.19;7398974;19;1385;-47
2023/08/12 02:34:45;;;;;;;;;;;;;;;23.48;51.35;101342.16;7399189;19;1454;-47
2023/08/12 02:37:14;;;;;;;;;;;;;;;23.45;51.20;101343.28;7399155;19;1167;-47
2023/08/12 02:39:42;;;;;;;;;;;;;;;23.45;51.29;101345.97;7395967;19;1843;-47
2023/08/12 02:42:10;;;;;;;;;;;;;;;23.39;51.19;101341.19;7397480;19;1594;-47
2023/08/12 02:44:39;;;;;;;;;;;;;;;23.39;51.08;101360.91;7398318;19;1968;-47
2023/08/12 02:47:07;;;;;;;;;;;;;;;23.42;50.90;101360.63;7398939;19;1317;-47
2023/08/12 02:49:38;;;;;;;;;;;;;;;23.41;51.04;101348.13;7399446;19;1465;-47
2023/08/12 02:52:07;;;;;;;;;;;;;;;23.38;51.05;101353.84;7398982;19;1124;-47
2023/08/12 02:54:35;;;;;;;;;;;;;;;23.39;50.78;101346.59;7398783;19;1795;-47
2023/08/12 02:57:03;;;;;;;;;;;;;;;23.37;50.91;101352.13;7396950;19;1243;-47
2023/08/12 02:59:31;;;;;;;;;;;;;;;23.32;51.08;101359.84;7398052;19;1871;-47
2023/08/12 03:02:00;;;;;;;;;;;;;;;23.36;50.95;101345.03;7398766;19;1454;-47
2023/08/12 03:04:28;;;;;;;;;;;;;;;23.33;50.94;101356.13;7398612;19;1266;-47
2023/08/12 03:06:59;;;;;;;;;;;;;;;23.29;51.09;101360.13;7398508;19;1294;-47
2023/08/12 03:09:27;;;;;;;;;;;;;;;23.35;50.99;101355.97;7398808;19;1408;-47
2023/08/12 03:11:56;;;;;;;;;;;;;;;23.37;50.85;101348.59;7398962;19;1337;-47
2023/08/12 03:14:24;;;;;;;;;;;;;;;23.33;51.21;101348.03;7399555;19;1353;-48
2023/08/12 03:16:52;;;;;;;;;;;;;;;23.32;51.23;101370.63;7398235;19;1411;-47
2023/08/12 03:19:21;;;;;;;;;;;;;;;23.33;50.79;101366.91;7397357;19;1860;-48
2023/08/12 03:21:49;;;;;;;;;;;;;;;23.24;51.14;101362.44;7399148;19;1155;-48
2023/08/12 03:24:20;;;;;;;;;;;;;;;23.24;51.23;101367.84;7397833;19;1274;-48
2023/08/12 03:26:48;;;;;;;;;;;;;;;23.25;50.92;101369.53;7398311;19;1159;-48
2023/08/12 03:29:17;;;;;;;;;;;;;;;23.30;50.90;101364.53;7398067;19;1144;-48
2023/08/12 03:31:45;;;;;;;;;;;;;;;23.30;50.84;101351.03;7397632;19;1298;-47
2023/08/12 03:34:13;;;;;;;;;;;;;;;23.23;51.08;101364.25;7397413;19;1463;-47
2023/08/12 03:36:41;;;;;;;;;;;;;;;23.24;51.25;101378.63;7395718;19;1258;-48
2023/08/12 03:39:09;;;;;;;;;;;;;;;23.27;50.88;101353.19;7396918;19;1871;-49
2023/08/12 03:41:40;;;;;;;;;;;;;;;23.28;51.29;101369.25;7397639;19;1246;-48
2023/08/12 03:44:12;;;;;;;;;;;;;;;23.25;51.16;101358.72;7395822;19;1393;-48
2023/08/12 03:46:40;;;;;;;;;;;;;;;23.26;51.46;101363.13;7396927;19;1241;-48
2023/08/12 03:49:08;;;;;;;;;;;;;;;23.26;51.44;101376.63;7396534;19;1227;-47
2023/08/12 03:51:36;;;;;;;;;;;;;;;23.26;51.52;101370.34;7397465;19;1104;-46
2023/08/12 03:54:05;;;;;;;;;;;;;;;23.27;51.48;101362.13;7396490;19;1412;-47
2023/08/12 03:56:33;;;;;;;;;;;;;;;23.21;51.64;101368.13;7394794;19;1350;-48
2023/08/12 03:59:04;;;;;;;;;;;;;;;23.29;51.63;101379.00;7393959;19;1846;-48
2023/08/12 04:01:32;;;;;;;;;;;;;;;23.20;51.90;101380.78;7396370;19;1208;-49
2023/08/12 04:04:01;;;;;;;;;;;;;;;23.32;51.56;101392.22;7396896;19;1400;-48
2023/08/12 04:06:29;;;;;;;;;;;;;;;23.38;51.74;101391.63;7396928;19;1559;-47
2023/08/12 04:08:57;;;;;;;;;;;;;;;23.37;51.73;101389.91;7396582;19;1380;-48
2023/08/12 04:11:25;;;;;;;;;;;;;;;23.46;51.36;101403.50;7396424;19;1183;-48
2023/08/12 04:13:54;;;;;;;;;;;;;;;23.37;51.80;101386.38;7396625;19;1385;-48
2023/08/12 04:16:26;;;;;;;;;;;;;;;23.42;51.89;101393.03;7397038;19;1927;-49
2023/08/12 04:18:54;;;;;;;;;;;;;;;23.53;51.57;101388.41;7395583;19;1841;-47
2023/08/12 04:21:22;;;;;;;;;;;;;;;23.08;51.39;101305.56;7396568;19;1245;-49
2023/08/12 04:23:51;;;;;;;;;;;;;;;23.53;51.48;101393.81;7396425;19;1403;-48
2023/08/12 04:26:19;;;;;;;;;;;;;;;23.60;51.42;101400.31;7395531;19;1419;-48
2023/08/12 04:28:47;;;;;;;;;;;;;;;23.66;51.33;101404.28;7396111;19;1265;-48
2023/08/12 04:31:15;;;;;;;;;;;;;;;23.74;51.04;101407.91;7396092;19;1475;-48
2023/08/12 04:33:46;;;;;;;;;;;;;;;23.81;51.12;101403.66;7393873;19;1318;-48
2023/08/12 04:36:14;;;;;;;;;;;;;;;23.90;50.74;101411.84;7395706;19;1261;-49
2023/08/12 04:38:43;;;;;;;;;;;;;;;24.00;50.78;101391.00;7394502;19;1856;-49
2023/08/12 04:41:11;;;;;;;;;;;;;;;23.97;50.82;101397.56;7393105;19;1278;-48
2023/08/12 04:43:39;;;;;;;;;;;;;;;24.08;50.65;101393.78;7395459;19;1472;-48
2023/08/12 04:46:08;;;;;;;;;;;;;;;24.19;50.23;101403.50;7396678;19;1131;-48
2023/08/12 04:48:36;;;;;;;;;;;;;;;24.26;50.36;101401.06;7402564;19;1807;-49
2023/08/12 04:51:07;;;;;;;;;;;;;;;24.34;50.13;101411.94;7402647;19;1213;-49
2023/08/12 04:53:35;;;;;;;;;;;;;;;24.30;50.16;101405.13;7403065;19;1495;-48
2023/08/12 04:56:03;;;;;;;;;;;;;;;24.29;50.36;101403.41;7400947;19;1152;-48
2023/08/12 04:58:32;;;;;;;;;;;;;;;24.08;50.79;101410.00;7402999;19;1842;-48
2023/08/12 05:01:00;;;;;;;;;;;;;;;24.30;50.59;101411.38;7403320;19;1353;-50
2023/08/12 05:03:28;;;;;;;;;;;;;;;24.22;50.39;101405.91;7402474;19;1349;-48
2023/08/12 05:05:56;;;;;;;;;;;;;;;24.24;50.42;101411.16;7402156;19;1255;-48
2023/08/12 05:08:27;;;;;;;;;;;;;;;24.12;51.02;101411.38;7399708;19;1467;-52
2023/08/12 05:10:56;;;;;;;;;;;;;;;23.98;51.40;101414.63;7401764;19;1171;-49
2023/08/12 05:13:24;;;;;;;;;;;;;;;24.05;51.53;101421.09;7401035;19;1712;-49
2023/08/12 05:15:52;;;;;;;;;;;;;;;23.97;51.70;101419.19;7401972;19;1324;-50
2023/08/12 05:18:21;;;;;;;;;;;;;;;23.98;51.74;101414.63;7400937;19;1387;-51
2023/08/12 05:20:49;;;;;;;;;;;;;;;24.00;51.65;101413.47;7399437;19;1864;-50
2023/08/12 05:23:17;;;;;;;;;;;;;;;23.84;52.20;101412.44;7401792;19;1336;-51
2023/08/12 05:25:48;;;;;;;;;;;;;;;23.95;51.88;101399.53;7400796;19;1301;-51
2023/08/12 05:28:16;;;;;;;;;;;;;;;24.03;51.88;101415.00;7400968;19;1152;-51
2023/08/12 05:30:45;;;;;;;;;;;;;;;23.88;52.44;101413.84;7399597;19;1356;-51
2023/08/12 05:33:13;;;;;;;;;;;;;;;23.85;52.60;101416.84;7400329;19;1179;-51
2023/08/12 05:35:41;;;;;;;;;;;;;;;23.80;52.64;101410.03;7397955;19;1304;-50
2023/08/12 05:38:09;;;;;;;;;;;;;;;23.88;52.54;101409.28;7402013;19;1109;-52
2023/08/12 05:40:38;;;;;;;;;;;;;;;23.96;52.48;101432.84;7399081;19;1845;-51
2023/08/12 05:43:09;;;;;;;;;;;;;;;24.02;52.52;101407.91;7400173;19;1333;-50
2023/08/12 05:45:37;;;;;;;;;;;;;;;24.05;52.38;101410.28;7399969;19;1405;-50
2023/08/12 05:48:06;;;;;;;;;;;;;;;24.14;52.42;101408.53;7400389;19;1427;-50
2023/08/12 05:50:34;;;;;;;;;;;;;;;24.02;52.46;101405.22;7397913;19;1175;-48
2023/08/12 05:53:02;;;;;;;;;;;;;;;24.12;52.43;101403.28;7397074;19;1423;-48
2023/08/12 05:55:30;;;;;;;;;;;;;;;24.20;52.09;101397.94;7399733;19;1472;-48
2023/08/12 05:57:59;;;;;;;;;;;;;;;24.38;52.04;101399.81;7400541;19;1108;-48
2023/08/12 06:00:29;;;;;;;;;;;;;;;24.39;52.26;101402.34;7397728;19;1870;-48
2023/08/12 06:02:58;;;;;;;;;;;;;;;24.53;51.89;101395.56;7401076;19;1353;-48
2023/08/12 06:05:26;;;;;;;;;;;;;;;24.37;52.72;101406.19;7399263;19;1195;-48
2023/08/12 06:07:54;;;;;;;;;;;;;;;24.22;52.41;101403.22;7399828;19;1397;-48
2023/08/12 06:10:22;;;;;;;;;;;;;;;24.13;52.60;101402.28;7399735;19;1364;-48
2023/08/12 06:12:51;;;;;;;;;;;;;;;24.25;52.39;101400.19;7400618;19;1321;-47
2023/08/12 06:15:19;;;;;;;;;;;;;;;24.52;52.36;101406.53;7399524;19;1317;-48
2023/08/12 06:17:50;;;;;;;;;;;;;;;24.81;51.71;101406.25;7398984;19;1214;-49
2023/08/12 06:20:18;;;;;;;;;;;;;;;25.21;50.75;101418.34;7396816;19;1841;-49
2023/08/12 06:22:47;;;;;;;;;;;;;;;25.33;50.46;101392.72;7398676;19;1192;-48
2023/08/12 06:25:15;;;;;;;;;;;;;;;25.25;50.77;101389.97;7400278;19;1207;-48
2023/08/12 06:27:43;;;;;;;;;;;;;;;25.21;51.03;101399.38;7400351;19;1451;-48
2023/08/12 06:30:12;;;;;;;;;;;;;;;25.12;50.57;101424.69;7396521;19;1493;-49
2023/08/12 06:32:41;;;;;;;;;;;;;;;25.02;51.38;101398.59;7398090;19;1358;-48
2023/08/12 06:35:12;;;;;;;;;;;;;;;25.01;51.28;101396.06;7399905;19;1195;-48
2023/08/12 06:37:41;;;;;;;;;;;;;;;25.02;51.12;101387.75;7399392;19;1294;-49
2023/08/12 06:40:10;;;;;;;;;;;;;;;25.20;50.97;101403.09;7396691;19;1842;-48
2023/08/12 06:42:38;;;;;;;;;;;;;;;25.13;51.37;101402.06;7399297;19;1223;-48
2023/08/12 06:45:07;;;;;;;;;;;;;;;25.26;50.79;101397.06;7397490;19;1487;-48
2023/08/12 06:47:35;;;;;;;;;;;;;;;25.37;50.57;101407.63;7398229;19;1359;-49
2023/08/12 06:50:04;;;;;;;;;;;;;;;25.40;50.61;101407.28;7396675;19;1956;-49
2023/08/12 06:52:35;;;;;;;;;;;;;;;25.33;50.59;101417.06;7398036;19;1286;-49
2023/08/12 06:55:03;;;;;;;;;;;;;;;25.37;50.28;101399.50;7397099;19;1290;-48
2023/08/12 06:57:31;;;;;;;;;;;;;;;25.47;50.27;101396.66;7396147;19;1148;-48
2023/08/12 07:00:00;;;;;;;;;;;;;;;25.49;50.44;101405.47;7397867;19;1839;-48
2023/08/12 07:02:28;;;;;;;;;;;;;;;25.44;50.33;101406.97;7397136;19;1356;-48
2023/08/12 07:04:56;;;;;;;;;;;;;;;25.38;50.79;101403.03;7396136;19;1503;-47
2023/08/12 07:07:25;;;;;;;;;;;;;;;25.37;50.86;101399.50;7397555;19;1235;-48
2023/08/12 07:09:56;;;;;;;;;;;;;;;25.28;51.00;101392.34;7397385;19;1415;-47
2023/08/12 07:12:24;;;;;;;;;;;;;;;25.30;51.41;101386.75;7396287;19;1259;-48
2023/08/12 07:14:52;;;;;;;;;;;;;;;25.12;51.71;101395.78;7396140;19;1325;-48
2023/08/12 07:17:20;;;;;;;;;;;;;;;25.06;52.29;101391.00;7396649;19;1516;-48
2023/08/12 07:19:49;;;;;;;;;;;;;;;25.02;51.34;101386.94;7397352;19;1854;-48
2023/08/12 07:22:20;;;;;;;;;;;;;;;25.01;51.52;101383.38;7398349;19;1123;-47
2023/08/12 07:24:48;;;;;;;;;;;;;;;25.05;50.47;101380.34;7396880;19;1422;-47
2023/08/12 07:27:19;;;;;;;;;;;;;;;25.09;51.08;101373.59;7396845;19;1324;-48
2023/08/12 07:29:48;;;;;;;;;;;;;;;25.17;50.86;101379.06;7398139;19;1131;-47
2023/08/12 07:32:16;;;;;;;;;;;;;;;25.07;51.09;101378.31;7397782;19;1033;-47
2023/08/12 07:34:45;;;;;;;;;;;;;;;25.18;50.77;101369.94;7398196;19;1400;-47
2023/08/12 07:37:13;;;;;;;;;;;;;;;25.17;50.97;101379.91;7397515;19;1475;-47
2023/08/12 07:39:41;;;;;;;;;;;;;;;25.08;50.53;101380.03;7396319;19;1845;-47
2023/08/12 07:42:09;;;;;;;;;;;;;;;25.07;50.72;101386.44;7396859;19;1331;-48
2023/08/12 07:44:40;;;;;;;;;;;;;;;25.09;50.00;101370.88;7395971;19;1211;-47
2023/08/12 07:47:09;;;;;;;;;;;;;;;25.07;50.38;101368.38;7397498;19;1480;-47
2023/08/12 07:49:37;;;;;;;;;;;;;;;25.02;50.33;101366.13;7397490;19;1308;-48
2023/08/12 07:52:05;;;;;;;;;;;;;;;25.11;49.98;101379.69;7397548;19;1100;-48
2023/08/12 07:54:34;;;;;;;;;;;;;;;25.19;50.09;101377.06;7397156;19;2014;-48
2023/08/12 07:57:02;;;;;;;;;;;;;;;25.21;49.53;101369.63;7395408;19;1495;-47
2023/08/12 07:59:30;;;;;;;;;;;;;;;25.20;49.77;101381.44;7395879;19;1842;-48
2023/08/12 08:02:01;;;;;;;;;;;;;;;25.10;49.92;101367.19;7397112;19;1439;-48
2023/08/12 08:04:30;;;;;;;;;;;;;;;25.09;49.66;101370.88;7396471;19;1208;-47
2023/08/12 08:06:58;;;;;;;;;;;;;;;25.09;49.51;101371.75;7394628;19;1272;-46
2023/08/12 08:09:26;;;;;;;;;;;;;;;25.26;49.14;101374.56;7395587;19;1219;-48
2023/08/12 08:11:54;;;;;;;;;;;;;;;25.24;49.15;101358.47;7395213;19;1439;-47
2023/08/12 08:14:23;;;;;;;;;;;;;;;25.23;49.26;101351.38;7396580;19;1107;-47
2023/08/12 08:16:52;;;;;;;;;;;;;;;25.27;49.66;101369.00;7396069;19;1349;-47
2023/08/12 08:19:22;;;;;;;;;;;;;;;25.18;50.06;101353.69;7395430;19;1423;-48
2023/08/12 08:21:51;;;;;;;;;;;;;;;25.25;50.01;101356.63;7391787;19;1856;-48
2023/08/12 08:24:19;;;;;;;;;;;;;;;25.37;50.41;101369.72;7396135;19;1490;-47
2023/08/12 08:26:48;;;;;;;;;;;;;;;25.23;53.05;101361.34;7394798;19;1410;-47
2023/08/12 08:29:16;;;;;;;;;;;;;;;25.22;52.35;101357.78;7395485;19;1225;-47
2023/08/12 08:31:44;;;;;;;;;;;;;;;25.38;52.60;101363.28;7393014;19;1444;-48
2023/08/12 08:34:13;;;;;;;;;;;;;;;25.26;52.53;101356.47;7393719;19;1151;-48
2023/08/12 08:36:44;;;;;;;;;;;;;;;25.30;57.55;101363.25;7393121;19;1415;-49
2023/08/12 08:39:12;;;;;;;;;;;;;;;25.13;55.37;101359.59;7391067;19;1281;-48
2023/08/12 08:41:41;;;;;;;;;;;;;;;25.11;54.92;101349.91;7391787;19;1880;-47
2023/08/12 08:44:10;;;;;;;;;;;;;;;25.11;56.74;101342.66;7394785;19;1269;-47
2023/08/12 08:46:39;;;;;;;;;;;;;;;25.10;55.70;101334.72;7391432;19;1337;-48
2023/08/12 08:49:08;;;;;;;;;;;;;;;25.05;55.69;101332.50;7392076;19;1214;-47
2023/08/12 08:51:37;;;;;;;;;;;;;;;25.00;56.11;101334.81;7394596;19;1203;-46
2023/08/12 08:54:08;;;;;;;;;;;;;;;24.99;55.59;101339.41;7391256;19;1292;-47
2023/08/12 08:56:36;;;;;;;;;;;;;;;25.00;57.04;101349.19;7393641;19;1259;-47
2023/08/12 08:59:05;;;;;;;;;;;;;;;25.06;56.03;101322.50;7394210;19;1312;-48
2023/08/12 09:01:34;;;;;;;;;;;;;;;25.02;56.45;101322.81;7392958;19;1889;-47
2023/08/12 09:04:03;;;;;;;;;;;;;;;25.10;56.45;101329.28;7395667;19;1388;-47
2023/08/12 09:06:32;;;;;;;;;;;;;;;25.04;57.09;101321.81;7394111;19;1179;-47
2023/08/12 09:09:00;;;;;;;;;;;;;;;25.00;56.60;101332.13;7395631;19;1407;-47
2023/08/12 09:11:32;;;;;;;;;;;;;;;24.99;56.90;101315.06;7394000;19;1219;-48
2023/08/12 09:14:01;;;;;;;;;;;;;;;25.03;57.35;101318.28;7395549;19;1400;-47
2023/08/12 09:16:29;;;;;;;;;;;;;;;25.05;57.73;101310.84;7394721;19;1245;-47
2023/08/12 09:18:58;;;;;;;;;;;;;;;25.10;56.93;101310.34;7393928;19;1207;-47
2023/08/12 09:21:26;;;;;;;;;;;;;;;25.09;57.12;101311.34;7394072;19;1865;-47
2023/08/12 09:23:55;;;;;;;;;;;;;;;25.17;57.27;101319.53;7394275;19;1261;-48
2023/08/12 09:26:23;;;;;;;;;;;;;;;25.26;56.68;101306.91;7394098;19;1297;-48
2023/08/12 09:28:54;;;;;;;;;;;;;;;25.24;57.80;101307.06;7394524;19;1167;-48
2023/08/12 09:31:26;;;;;;;;;;;;;;;25.18;58.58;101294.13;7390421;19;1242;-47
2023/08/12 09:33:55;;;;;;;;;;;;;;;25.16;57.98;101279.94;7393577;19;1153;-48
2023/08/12 09:36:24;;;;;;;;;;;;;;;25.14;58.45;101295.47;7397050;19;1313;-47
2023/08/12 09:38:54;;;;;;;;;;;;;;;25.11;57.78;101284.97;7401281;19;1594;-47
2023/08/12 09:41:22;;;;;;;;;;;;;;;25.15;57.79;101289.06;7400400;19;1861;-46
2023/08/12 09:43:51;;;;;;;;;;;;;;;25.19;57.64;101293.97;7401999;19;1228;-48
2023/08/12 09:46:24;;;;;;;;;;;;;;;25.15;58.01;101291.78;7401253;19;1405;-47
2023/08/12 09:48:52;;;;;;;;;;;;;;;25.12;58.58;101286.69;7399036;19;1262;-47
2023/08/12 09:51:22;;;;;;;;;;;;;;;25.22;57.83;101278.47;7397387;19;1971;-47
2023/08/12 09:53:50;;;;;;;;;;;;;;;25.18;58.39;101269.78;7399018;19;1278;-47
2023/08/12 09:56:20;;;;;;;;;;;;;;;24.98;58.52;101269.22;7394709;19;1218;-47
2023/08/12 09:58:50;;;;;;;;;;;;;;;25.00;58.36;101270.72;7400621;19;1441;-47
2023/08/12 10:01:23;;;;;;;;;;;;;;;24.99;58.38;101266.34;7398945;19;1846;-47
2023/08/12 10:03:52;;;;;;;;;;;;;;;24.97;58.57;101265.66;7397352;19;1582;-47
2023/08/12 10:06:20;;;;;;;;;;;;;;;24.96;58.38;101257.69;7401684;19;1694;-48
2023/08/12 10:08:49;;;;;;;;;;;;;;;24.93;58.09;101253.47;7397508;19;1326;-47
2023/08/12 10:11:17;;;;;;;;;;;;;;;24.93;58.45;101252.59;7396592;19;1351;-48
2023/08/12 10:13:45;;;;;;;;;;;;;;;24.90;58.25;101252.94;7396231;19;1171;-47
2023/08/12 10:16:14;;;;;;;;;;;;;;;24.87;58.46;101243.31;7396709;19;1110;-47
2023/08/12 10:18:45;;;;;;;;;;;;;;;24.87;58.47;101248.72;7396306;19;1391;-47
2023/08/12 10:21:14;;;;;;;;;;;;;;;24.89;58.40;101237.72;7396877;19;1850;-47
2023/08/12 10:23:44;;;;;;;;;;;;;;;24.88;58.49;101239.56;7396659;19;1610;-47
2023/08/12 10:26:12;;;;;;;;;;;;;;;24.87;58.70;101240.59;7399787;19;1398;-47
2023/08/12 10:28:40;;;;;;;;;;;;;;;24.86;58.68;101236.19;7398958;19;1629;-47
2023/08/12 10:31:09;;;;;;;;;;;;;;;24.88;58.39;101238.72;7399390;19;1438;-47
2023/08/12 10:33:38;;;;;;;;;;;;;;;24.85;58.62;101234.50;7400406;19;1495;-47
2023/08/12 10:36:09;;;;;;;;;;;;;;;24.85;58.54;101239.91;7400089;19;1856;-47
2023/08/12 10:38:38;;;;;;;;;;;;;;;24.84;58.57;101210.31;7399748;19;1914;-47
2023/08/12 10:41:27;;;;;;;;;;;;;;;24.81;58.48;101223.16;7398896;19;1838;-47
2023/08/12 10:43:56;;;;;;;;;;;;;;;24.82;58.75;101210.47;7399289;19;1355;-47
2023/08/12 10:46:25;;;;;;;;;;;;;;;24.82;58.82;101226.69;7399674;19;1515;-47
2023/08/12 10:49:06;;;;;;;;;;;;;;;24.83;58.62;101222.13;7400139;19;1516;-47
2023/08/12 10:51:50;;;;;;;;;;;;;;;24.85;58.47;101220.09;7399313;19;1805;-46
2023/08/12 10:54:19;;;;;;;;;;;;;;;24.83;58.50;101204.06;7399647;19;1325;-47
2023/08/12 10:57:03;;;;;;;;;;;;;;;24.87;58.73;101209.97;7397666;19;1360;-47
2023/08/12 10:59:46;;;;;;;;;;;;;;;24.85;58.47;101210.16;7398689;19;1955;-47
2023/08/12 11:02:18;;;;;;;;;;;;;;;24.87;58.29;101196.44;7397095;19;1847;-47
2023/08/12 11:04:46;;;;;;;;;;;;;;;24.89;58.42;101200.69;7398892;19;1223;-47
2023/08/12 11:07:21;;;;;;;;;;;;;;;24.90;58.46;101215.91;7398029;19;1231;-47
2023/08/12 11:09:53;;;;;;;;;;;;;;;24.82;58.48;101213.19;7399739;19;1400;-48
2023/08/12 11:12:29;;;;;;;;;;;;;;;24.82;58.79;101202.34;7398547;19;1493;-48
2023/08/12 11:15:00;;;;;;;;;;;;;;;24.79;58.47;101186.47;7396875;19;1551;-48
2023/08/12 11:17:32;;;;;;;;;;;;;;;24.79;58.82;101191.88;7397328;19;1339;-47
2023/08/12 11:20:01;;;;;;;;;;;;;;;24.81;58.63;101190.69;7397636;19;1494;-47
2023/08/12 11:22:36;;;;;;;;;;;;;;;24.83;58.56;101208.59;7397707;19;1840;-47
2023/08/12 11:25:07;;;;;;;;;;;;;;;24.86;58.44;101198.31;7399210;19;1599;-47
2023/08/12 11:27:39;;;;;;;;;;;;;;;24.85;58.56;101179.53;7398744;19;1385;-47
2023/08/12 11:30:08;;;;;;;;;;;;;;;24.88;58.39;101190.03;7400227;19;1003;-47
2023/08/12 11:32:36;;;;;;;;;;;;;;;24.85;58.27;101183.09;7399215;19;1591;-48
2023/08/12 11:35:05;;;;;;;;;;;;;;;24.81;58.49;101176.34;7398632;19;2031;-47
2023/08/12 11:37:37;;;;;;;;;;;;;;;24.86;58.42;101181.25;7397974;19;1796;-48
2023/08/12 11:40:08;;;;;;;;;;;;;;;24.87;58.26;101177.50;7398823;19;1509;-48
2023/08/12 11:42:37;;;;;;;;;;;;;;;24.85;58.39;101169.59;7396983;19;1862;-47
2023/08/12 11:45:05;;;;;;;;;;;;;;;24.85;58.55;101169.59;7398095;19;1406;-47
2023/08/12 11:47:33;;;;;;;;;;;;;;;24.85;58.33;101169.59;7396792;19;1425;-47
2023/08/12 11:50:04;;;;;;;;;;;;;;;24.83;58.60;101177.03;7397004;19;1583;-47
2023/08/12 11:52:32;;;;;;;;;;;;;;;24.83;58.41;101177.03;7395969;19;1463;-47
2023/08/12 11:55:03;;;;;;;;;;;;;;;24.81;58.70;101168.22;7397695;19;1122;-48
2023/08/12 11:57:34;;;;;;;;;;;;;;;24.84;58.48;101178.69;7393549;19;1579;-48
2023/08/12 12:00:04;;;;;;;;;;;;;;;24.83;58.55;101158.09;7397075;19;1674;-48
2023/08/12 12:02:32;;;;;;;;;;;;;;;24.84;58.42;101158.91;7395882;19;1845;-48
2023/08/12 12:05:00;;;;;;;;;;;;;;;24.84;58.23;101167.88;7397895;19;1563;-48
2023/08/12 12:07:31;;;;;;;;;;;;;;;24.85;58.35;101155.19;7397289;19;1464;-47
2023/08/12 12:09:59;;;;;;;;;;;;;;;24.87;58.40;101162.16;7395504;19;1255;-47
2023/08/12 12:12:30;;;;;;;;;;;;;;;24.86;58.39;101155.03;7396868;19;1163;-47
2023/08/12 12:14:58;;;;;;;;;;;;;;;24.85;58.58;101152.47;7396184;19;1400;-47
2023/08/12 12:17:27;;;;;;;;;;;;;;;24.85;58.48;101156.06;7396729;19;1459;-47
2023/08/12 12:19:57;;;;;;;;;;;;;;;24.87;58.52;101151.31;7396409;19;1266;-47
2023/08/12 12:22:29;;;;;;;;;;;;;;;24.83;58.30;101141.84;7395787;19;1861;-47
2023/08/12 12:25:00;;;;;;;;;;;;;;;24.88;58.36;101150.31;7396970;19;1143;-47
2023/08/12 12:27:31;;;;;;;;;;;;;;;24.86;58.40;101143.38;7395644;19;1855;-47
2023/08/12 12:29:59;;;;;;;;;;;;;;;24.84;58.44;101142.69;7396098;19;1266;-47
2023/08/12 12:32:27;;;;;;;;;;;;;;;24.84;58.28;101134.56;7397248;19;1103;-47
2023/08/12 12:34:56;;;;;;;;;;;;;;;24.84;58.62;101130.00;7396628;19;1289;-47
2023/08/12 12:37:24;;;;;;;;;;;;;;;24.85;58.54;101129.00;7396781;19;1285;-47
2023/08/12 12:39:52;;;;;;;;;;;;;;;24.84;58.14;101134.56;7395264;19;1506;-47
2023/08/12 12:42:21;;;;;;;;;;;;;;;24.84;58.56;101145.41;7394768;19;1847;-47
2023/08/12 12:44:51;;;;;;;;;;;;;;;24.88;58.26;101135.94;7395923;19;1274;-47
2023/08/12 12:47:20;;;;;;;;;;;;;;;24.85;58.28;101131.72;7396386;19;1417;-47
2023/08/12 12:49:49;;;;;;;;;;;;;;;24.90;58.31;101120.38;7395674;19;1344;-47
2023/08/12 12:52:17;;;;;;;;;;;;;;;24.86;58.34;101127.97;7395784;19;1352;-47
2023/08/12 12:54:45;;;;;;;;;;;;;;;24.86;58.35;101111.75;7396346;19;1180;-47
2023/08/12 12:57:14;;;;;;;;;;;;;;;24.86;58.37;101127.13;7394231;19;1481;-47